Terminal Aerodrome Forecast
Issued by NWS Des Moines, IA

Home | Current Version | Previous Version | Text Only | Print | Product List | Glossary On
Versions: 1 2 3 4 5 6 7 8 9 10 11 12 13 14 15 16 17 18 19 20 21 22 23 24 25 26 27 28 29 30 31 32 33 34 35 36 37 38 39 40 41
000
FTUS43 KDMX 091943 AAA
TAFALO
TAF AMD
KALO 091943Z 0920/1018 30007KT P6SM SCT015 BKN200
      TEMPO 0920/0922 BKN015
     FM092200 26006KT P6SM SCT035 BKN060
     FM100800 VRB03KT P6SM SCT025 BKN040
     FM101600 14007KT P6SM OVC030=

USA.gov is the U.S. government's official web portal to all federal, state and local government web resources and services.